Time,TemperatureF,DewpointF,PressureIn,WindDirection,WindDirectionDegrees,WindSpeedMPH,WindSpeedGustMPH,Humidity,HourlyPrecipIn,Conditions,Clouds,dailyrainin,SoftwareType,DateUTC
2013-04-29 00:02:00,68.0,18.0,29.91,SSW,200,8.0,10.0,15,-99.99,,,-99.99,,2013-04-29 06:02:00,
2013-04-29 00:11:00,67.0,18.0,29.91,SSW,203,8.0,10.0,15,-99.99,,,-99.99,,2013-04-29 06:11:00,
2013-04-29 00:21:00,65.0,18.0,29.91,SSW,192,8.0,10.0,16,-99.99,,,-99.99,,2013-04-29 06:21:00,
2013-04-29 00:32:00,66.0,17.0,29.92,SSW,193,8.0,10.0,15,-99.99,,,-99.99,,2013-04-29 06:32:00,
2013-04-29 00:42:00,66.0,18.0,29.92,SSW,204,8.0,10.0,16,-99.99,,,-99.99,,2013-04-29 06:42:00,
2013-04-29 00:51:00,65.0,18.0,29.92,SSW,198,8.0,12.0,16,-99.99,,,-99.99,,2013-04-29 06:51:00,
2013-04-29 01:01:00,66.0,18.0,29.91,South,190,9.0,12.0,16,-99.99,,,-99.99,,2013-04-29 07:01:00,
2013-04-29 01:11:00,67.0,17.0,29.91,South,185,9.0,12.0,15,-99.99,,,-99.99,,2013-04-29 07:11:00,
2013-04-29 01:21:00,67.0,18.0,29.91,South,187,9.0,10.0,15,-99.99,,,-99.99,,2013-04-29 07:21:00,
2013-04-29 01:32:00,67.0,18.0,29.91,South,190,9.0,10.0,15,-99.99,,,-99.99,,2013-04-29 07:32:00,
2013-04-29 01:42:00,63.0,17.0,29.91,SSW,205,8.0,9.0,17,-99.99,,,-99.99,,2013-04-29 07:42:00,
2013-04-29 01:52:00,58.0,16.0,29.92,SW,227,9.0,12.0,19,-99.99,,,-99.99,,2013-04-29 07:52:00,
2013-04-29 02:03:00,58.0,16.0,29.91,SW,225,9.0,10.0,19,-99.99,,,-99.99,,2013-04-29 08:03:00,
2013-04-29 02:11:00,59.0,17.0,29.91,SW,227,9.0,9.0,19,-99.99,,,-99.99,,2013-04-29 08:11:00,
2013-04-29 02:21:00,57.0,16.0,29.91,WSW,238,9.0,14.0,20,-99.99,,,-99.99,,2013-04-29 08:21:00,
2013-04-29 02:32:00,57.0,17.0,29.92,WSW,239,9.0,10.0,20,-99.99,,,-99.99,,2013-04-29 08:32:00,
2013-04-29 02:42:00,57.0,17.0,29.92,WSW,239,9.0,10.0,20,-99.99,,,-99.99,,2013-04-29 08:42:00,
2013-04-29 02:51:00,57.0,16.0,29.92,WSW,238,9.0,10.0,20,-99.99,,,-99.99,,2013-04-29 08:51:00,
2013-04-29 03:01:00,58.0,16.0,29.92,SW,219,9.0,10.0,19,-99.99,,,-99.99,,2013-04-29 09:01:00,
2013-04-29 03:12:00,61.0,17.0,29.92,SSW,211,8.0,12.0,18,-99.99,,,-99.99,,2013-04-29 09:12:00,
2013-04-29 03:21:00,63.0,17.0,29.92,SSW,210,8.0,10.0,17,-99.99,,,-99.99,,2013-04-29 09:21:00,
2013-04-29 03:32:00,62.0,18.0,29.92,ESE,104,8.0,13.0,18,-99.99,,,-99.99,,2013-04-29 09:32:00,
2013-04-29 03:42:00,60.0,18.0,29.92,SE,129,8.0,9.0,19,-99.99,,,-99.99,,2013-04-29 09:42:00,
2013-04-29 03:52:00,60.0,18.0,29.92,SSE,157,9.0,12.0,19,-99.99,,,-99.99,,2013-04-29 09:52:00,
2013-04-29 04:02:00,63.0,19.0,29.92,SSE,163,7.0,8.0,18,-99.99,,,-99.99,,2013-04-29 10:02:00,
2013-04-29 04:12:00,63.0,19.0,29.92,SSE,154,7.0,9.0,18,-99.99,,,-99.99,,2013-04-29 10:12:00,
2013-04-29 04:23:00,61.0,18.0,29.92,SSE,164,9.0,13.0,19,-99.99,,,-99.99,,2013-04-29 10:23:00,
2013-04-29 04:32:00,63.0,19.0,29.92,South,173,10.0,13.0,18,-99.99,,,-99.99,,2013-04-29 10:32:00,
2013-04-29 04:42:00,62.0,19.0,29.92,South,186,9.0,10.0,19,-99.99,,,-99.99,,2013-04-29 10:42:00,
2013-04-29 04:52:00,62.0,18.0,29.93,SSW,196,9.0,12.0,18,-99.99,,,-99.99,,2013-04-29 10:52:00,
2013-04-29 05:02:00,61.0,19.0,29.93,SSW,201,9.0,13.0,19,-99.99,,,-99.99,,2013-04-29 11:02:00,
2013-04-29 05:12:00,61.0,18.0,29.93,SSW,194,12.0,17.0,19,-99.99,,,-99.99,,2013-04-29 11:12:00,
2013-04-29 05:21:00,61.0,20.0,29.93,SSW,199,9.0,15.0,20,-99.99,,,-99.99,,2013-04-29 11:21:00,
2013-04-29 05:32:00,60.0,20.0,29.93,SSW,203,10.0,13.0,21,-99.99,,,-99.99,,2013-04-29 11:32:00,
2013-04-29 05:42:00,59.0,21.0,29.93,South,191,10.0,15.0,23,-99.99,,,-99.99,,2013-04-29 11:42:00,
2013-04-29 05:52:00,59.0,20.0,29.93,SSW,195,10.0,13.0,22,-99.99,,,-99.99,,2013-04-29 11:52:00,
2013-04-29 06:01:00,58.0,20.0,29.93,South,188,9.0,13.0,23,-99.99,,,-99.99,,2013-04-29 12:01:00,
2013-04-29 06:12:00,57.0,21.0,29.93,South,182,9.0,12.0,24,-99.99,,,-99.99,,2013-04-29 12:12:00,
2013-04-29 06:22:00,58.0,23.0,29.93,South,179,8.0,9.0,25,-99.99,,,-99.99,,2013-04-29 12:22:00,
2013-04-29 06:31:00,59.0,23.0,29.93,South,178,7.0,9.0,25,-99.99,,,-99.99,,2013-04-29 12:31:00,
2013-04-29 06:42:00,58.0,23.0,29.93,South,184,9.0,12.0,26,-99.99,,,-99.99,,2013-04-29 12:42:00,
2013-04-29 06:52:00,58.0,24.0,29.92,South,187,8.0,10.0,26,-99.99,,,-99.99,,2013-04-29 12:52:00,
2013-04-29 07:01:00,58.0,24.0,29.93,South,190,8.0,12.0,27,-99.99,,,-99.99,,2013-04-29 13:01:00,
2013-04-29 07:11:00,59.0,25.0,29.93,SSW,197,6.0,8.0,27,-99.99,,,-99.99,,2013-04-29 13:11:00,
2013-04-29 07:21:00,59.0,24.0,29.93,SW,227,3.0,5.0,26,-99.99,,,-99.99,,2013-04-29 13:21:00,
2013-04-29 07:31:00,58.0,24.0,29.93,South,184,6.0,8.0,27,-99.99,,,-99.99,,2013-04-29 13:31:00,
2013-04-29 07:42:00,59.0,26.0,29.93,SSW,193,7.0,9.0,28,-99.99,,,-99.99,,2013-04-29 13:42:00,
2013-04-29 07:52:00,59.0,26.0,29.93,SSW,195,8.0,10.0,28,-99.99,,,-99.99,,2013-04-29 13:52:00,
2013-04-29 08:02:00,61.0,26.0,29.94,SSW,208,7.0,9.0,27,-99.99,,,-99.99,,2013-04-29 14:02:00,
2013-04-29 08:11:00,61.0,27.0,29.95,NW,318,5.0,6.0,27,-99.99,,,-99.99,,2013-04-29 14:11:00,
2013-04-29 08:21:00,62.0,26.0,29.95,NW,323,5.0,7.0,25,-99.99,,,-99.99,,2013-04-29 14:21:00,
2013-04-29 08:32:00,63.0,28.0,29.96,SW,230,5.0,7.0,26,-99.99,,,-99.99,,2013-04-29 14:32:00,
2013-04-29 08:42:00,65.0,27.0,29.96,NNW,336,3.0,5.0,24,-99.99,,,-99.99,,2013-04-29 14:42:00,
2013-04-29 08:52:00,65.0,28.0,29.96,South,185,5.0,7.0,25,-99.99,,,-99.99,,2013-04-29 14:52:00,
2013-04-29 09:01:00,66.0,30.0,29.96,SSW,193,6.0,8.0,26,-99.99,,,-99.99,,2013-04-29 15:01:00,
2013-04-29 09:12:00,67.0,31.0,29.96,SSW,203,9.0,12.0,26,-99.99,,,-99.99,,2013-04-29 15:12:00,
2013-04-29 09:21:00,67.0,30.0,29.95,South,183,10.0,12.0,25,-99.99,,,-99.99,,2013-04-29 15:21:00,
2013-04-29 09:33:00,69.0,32.0,29.95,SSE,167,10.0,13.0,25,-99.99,,,-99.99,,2013-04-29 15:33:00,
2013-04-29 09:42:00,70.0,31.0,29.95,South,182,10.0,14.0,24,-99.99,,,-99.99,,2013-04-29 15:42:00,
2013-04-29 09:52:00,71.0,30.0,29.95,SSW,199,10.0,13.0,22,-99.99,,,-99.99,,2013-04-29 15:52:00,
2013-04-29 10:02:00,71.0,29.0,29.95,SSW,196,9.0,12.0,21,-99.99,,,-99.99,,2013-04-29 16:02:00,
2013-04-29 10:12:00,72.0,29.0,29.95,South,183,9.0,12.0,20,-99.99,,,-99.99,,2013-04-29 16:12:00,
2013-04-29 10:23:00,73.0,28.0,29.95,SSE,167,7.0,9.0,19,-99.99,,,-99.99,,2013-04-29 16:23:00,
2013-04-29 10:33:00,74.0,27.0,29.95,SSW,209,6.0,7.0,18,-99.99,,,-99.99,,2013-04-29 16:33:00,
2013-04-29 10:42:00,74.0,26.0,29.95,South,184,6.0,10.0,17,-99.99,,,-99.99,,2013-04-29 16:42:00,
2013-04-29 10:52:00,75.0,21.0,29.95,SSW,206,7.0,9.0,13,-99.99,,,-99.99,,2013-04-29 16:52:00,
2013-04-29 11:02:00,76.0,19.0,29.95,West,261,8.0,10.0,12,-99.99,,,-99.99,,2013-04-29 17:02:00,
2013-04-29 11:12:00,76.0,20.0,29.94,WNW,294,6.0,9.0,12,-99.99,,,-99.99,,2013-04-29 17:12:00,
2013-04-29 11:22:00,78.0,19.0,29.94,West,265,7.0,9.0,11,-99.99,,,-99.99,,2013-04-29 17:22:00,
2013-04-29 11:32:00,78.0,20.0,29.94,WSW,242,9.0,13.0,11,-99.99,,,-99.99,,2013-04-29 17:32:00,
2013-04-29 11:42:00,79.0,18.0,29.94,WSW,245,6.0,9.0,10,-99.99,,,-99.99,,2013-04-29 17:42:00,
2013-04-29 11:52:00,80.0,18.0,29.94,SW,226,2.0,5.0,10,-99.99,,,-99.99,,2013-04-29 17:52:00,
2013-04-29 12:01:00,81.0,17.0,29.93,WNW,289,7.0,10.0,9,-99.99,,,-99.99,,2013-04-29 18:01:00,
2013-04-29 12:13:00,80.0,14.0,29.93,West,269,6.0,9.0,8,-99.99,,,-99.99,,2013-04-29 18:13:00,
2013-04-29 12:22:00,82.0,15.0,29.93,North,350,6.0,9.0,8,-99.99,,,-99.99,,2013-04-29 18:22:00,
2013-04-29 12:32:00,82.0,12.0,29.92,NW,318,6.0,10.0,7,-99.99,,,-99.99,,2013-04-29 18:32:00,
2013-04-29 12:42:00,83.0,12.0,29.92,SW,231,8.0,13.0,7,-99.99,,,-99.99,,2013-04-29 18:42:00,
2013-04-29 12:51:00,83.0,13.0,29.91,NNW,337,5.0,9.0,7,-99.99,,,-99.99,,2013-04-29 18:51:00,
2013-04-29 13:01:00,84.0,13.0,29.91,SSW,204,5.0,7.0,7,-99.99,,,-99.99,,2013-04-29 19:01:00,
2013-04-29 13:11:00,83.0,13.0,29.91,NNE,13,6.0,8.0,7,-99.99,,,-99.99,,2013-04-29 19:11:00,
2013-04-29 13:21:00,84.0,14.0,29.90,WNW,292,6.0,9.0,7,-99.99,,,-99.99,,2013-04-29 19:21:00,
2013-04-29 13:31:00,84.0,14.0,29.90,WNW,292,6.0,9.0,7,-99.99,,,-99.99,,2013-04-29 19:31:00,
2013-04-29 13:41:00,87.0,12.0,29.89,NW,323,10.0,14.0,6,-99.99,,,-99.99,,2013-04-29 19:41:00,
2013-04-29 13:52:00,86.0,11.0,29.88,North,3,7.0,9.0,6,-99.99,,,-99.99,,2013-04-29 19:52:00,
2013-04-29 14:02:00,85.0,11.0,29.88,SW,220,6.0,9.0,6,-99.99,,,-99.99,,2013-04-29 20:02:00,
2013-04-29 14:11:00,88.0,9.0,29.87,NW,320,9.0,13.0,5,-99.99,,,-99.99,,2013-04-29 20:11:00,
2013-04-29 14:21:00,87.0,8.0,29.87,NNW,332,8.0,10.0,5,-99.99,,,-99.99,,2013-04-29 20:21:00,
2013-04-29 14:32:00,88.0,8.0,29.86,West,259,9.0,15.0,5,-99.99,,,-99.99,,2013-04-29 20:32:00,
2013-04-29 14:42:00,87.0,8.0,29.86,West,265,13.0,20.0,5,-99.99,,,-99.99,,2013-04-29 20:42:00,
2013-04-29 14:52:00,89.0,9.0,29.85,NW,316,10.0,15.0,5,-99.99,,,-99.99,,2013-04-29 20:52:00,
2013-04-29 15:01:00,89.0,4.0,29.85,WSW,257,5.0,9.0,4,-99.99,,,-99.99,,2013-04-29 21:01:00,
2013-04-29 15:11:00,88.0,8.0,29.84,North,354,10.0,16.0,5,-99.99,,,-99.99,,2013-04-29 21:11:00,
2013-04-29 15:21:00,88.0,8.0,29.84,North,351,14.0,18.0,5,-99.99,,,-99.99,,2013-04-29 21:21:00,
2013-04-29 15:33:00,88.0,4.0,29.84,WNW,298,6.0,8.0,4,-99.99,,,-99.99,,2013-04-29 21:33:00,
2013-04-29 15:42:00,89.0,4.0,29.83,WSW,250,8.0,15.0,4,-99.99,,,-99.99,,2013-04-29 21:42:00,
2013-04-29 15:53:00,89.0,4.0,29.82,WNW,294,13.0,30.0,4,-99.99,,,-99.99,,2013-04-29 21:53:00,
2013-04-29 16:02:00,89.0,4.0,29.82,WSW,258,8.0,13.0,4,-99.99,,,-99.99,,2013-04-29 22:02:00,
2013-04-29 16:13:00,89.0,4.0,29.82,NW,311,12.0,17.0,4,-99.99,,,-99.99,,2013-04-29 22:13:00,
2013-04-29 16:23:00,89.0,4.0,29.81,NW,322,10.0,16.0,4,-99.99,,,-99.99,,2013-04-29 22:23:00,
2013-04-29 16:32:00,89.0,5.0,29.81,NNW,337,12.0,16.0,4,-99.99,,,-99.99,,2013-04-29 22:32:00,
2013-04-29 16:42:00,88.0,4.0,29.81,NW,324,7.0,10.0,4,-99.99,,,-99.99,,2013-04-29 22:42:00,
2013-04-29 16:52:00,89.0,4.0,29.80,NW,307,14.0,18.0,4,-99.99,,,-99.99,,2013-04-29 22:52:00,
2013-04-29 17:02:00,89.0,4.0,29.80,WNW,283,16.0,22.0,4,-99.99,,,-99.99,,2013-04-29 23:02:00,
2013-04-29 17:11:00,88.0,4.0,29.80,NW,307,6.0,9.0,4,-99.99,,,-99.99,,2013-04-29 23:11:00,
2013-04-29 17:22:00,88.0,4.0,29.80,West,262,7.0,15.0,4,-99.99,,,-99.99,,2013-04-29 23:22:00,
2013-04-29 17:32:00,87.0,3.0,29.79,West,281,10.0,15.0,4,-99.99,,,-99.99,,2013-04-29 23:32:00,
2013-04-29 17:42:00,89.0,4.0,29.79,NW,304,12.0,17.0,4,-99.99,,,-99.99,,2013-04-29 23:42:00,
2013-04-29 17:52:00,88.0,4.0,29.79,North,6,9.0,13.0,4,-99.99,,,-99.99,,2013-04-29 23:52:00,
2013-04-29 18:01:00,88.0,4.0,29.79,West,273,9.0,15.0,4,-99.99,,,-99.99,,2013-04-30 00:01:00,
2013-04-29 18:11:00,87.0,3.0,29.79,WNW,294,7.0,12.0,4,-99.99,,,-99.99,,2013-04-30 00:11:00,
2013-04-29 18:21:00,87.0,3.0,29.78,WSW,247,6.0,8.0,4,-99.99,,,-99.99,,2013-04-30 00:21:00,
2013-04-29 18:32:00,87.0,3.0,29.78,SW,217,6.0,8.0,4,-99.99,,,-99.99,,2013-04-30 00:32:00,
2013-04-29 18:41:00,88.0,4.0,29.78,WNW,286,10.0,15.0,4,-99.99,,,-99.99,,2013-04-30 00:41:00,
2013-04-29 18:51:00,88.0,4.0,29.78,WNW,286,10.0,15.0,4,-99.99,,,-99.99,,2013-04-30 00:51:00,
2013-04-29 19:02:00,87.0,3.0,29.78,SW,230,7.0,9.0,4,-99.99,,,-99.99,,2013-04-30 01:02:00,
2013-04-29 19:11:00,87.0,3.0,29.78,SW,222,8.0,12.0,4,-99.99,,,-99.99,,2013-04-30 01:11:00,
2013-04-29 19:21:00,87.0,3.0,29.78,WSW,245,6.0,15.0,4,-99.99,,,-99.99,,2013-04-30 01:21:00,
2013-04-29 19:32:00,87.0,3.0,29.78,WSW,245,6.0,15.0,4,-99.99,,,-99.99,,2013-04-30 01:32:00,
2013-04-29 19:41:00,85.0,2.0,29.78,WNW,286,7.0,9.0,4,-99.99,,,-99.99,,2013-04-30 01:41:00,
2013-04-29 19:52:00,85.0,6.0,29.78,West,260,9.0,14.0,5,-99.99,,,-99.99,,2013-04-30 01:52:00,
2013-04-29 20:01:00,83.0,5.0,29.78,WSW,256,7.0,12.0,5,-99.99,,,-99.99,,2013-04-30 02:01:00,
2013-04-29 20:11:00,83.0,5.0,29.78,WSW,256,7.0,12.0,5,-99.99,,,-99.99,,2013-04-30 02:11:00,
2013-04-29 20:21:00,81.0,4.0,29.78,West,276,7.0,7.0,5,-99.99,,,-99.99,,2013-04-30 02:21:00,
2013-04-29 20:31:00,80.0,7.0,29.79,WSW,258,5.0,7.0,6,-99.99,,,-99.99,,2013-04-30 02:31:00,
2013-04-29 20:41:00,80.0,7.0,29.79,WSW,258,5.0,7.0,6,-99.99,,,-99.99,,2013-04-30 02:41:00,
2013-04-29 20:51:00,77.0,5.0,29.79,WSW,245,7.0,7.0,6,-99.99,,,-99.99,,2013-04-30 02:51:00,
2013-04-29 21:01:00,76.0,4.0,29.79,WSW,252,8.0,9.0,6,-99.99,,,-99.99,,2013-04-30 03:01:00,
2013-04-29 21:11:00,76.0,4.0,29.79,WSW,252,8.0,9.0,6,-99.99,,,-99.99,,2013-04-30 03:11:00,
2013-04-29 21:21:00,74.0,2.0,29.80,West,260,7.0,8.0,6,-99.99,,,-99.99,,2013-04-30 03:21:00,
2013-04-29 21:33:00,74.0,2.0,29.80,West,260,7.0,8.0,6,-99.99,,,-99.99,,2013-04-30 03:33:00,
2013-04-29 21:42:00,74.0,2.0,29.80,West,260,7.0,8.0,6,-99.99,,,-99.99,,2013-04-30 03:42:00,
2013-04-29 21:52:00,74.0,2.0,29.80,West,260,7.0,8.0,6,-99.99,,,-99.99,,2013-04-30 03:52:00,
2013-04-29 22:52:00,69.0,5.0,29.81,WSW,244,8.0,8.0,8,-99.99,,,-99.99,,2013-04-30 04:52:00,
2013-04-29 23:02:00,67.0,3.0,29.80,WSW,252,7.0,8.0,8,-99.99,,,-99.99,,2013-04-30 05:02:00,
2013-04-29 23:12:00,67.0,3.0,29.80,WSW,252,7.0,8.0,8,-99.99,,,-99.99,,2013-04-30 05:12:00,
2013-04-29 23:22:00,67.0,3.0,29.80,WSW,252,7.0,8.0,8,-99.99,,,-99.99,,2013-04-30 05:22:00,
2013-04-29 23:31:00,67.0,3.0,29.80,WSW,252,7.0,8.0,8,-99.99,,,-99.99,,2013-04-30 05:31:00,